Baie-Des-Sables, Canada
Current Conditions -  °F | °C
As of 1:00 PM on Monday 22 Dec 2014 (Local Time) from CYYY Reporting Station
Light Snow Light Snow  
Wind Chill: 17°   Ceiling: 1500
Heat Index: 23°   Visibility: 15mi
Dew Point: 18°   Wind: 5mph
Humidity: 80%   Direction: 220°SW
Pressure: 30.42"   Gusts: NA
Location:  48.72°N, 67.87°W
Report Text: CYYY 221800Z 22004KT 15SM -SN BKN015 OVC020 M05/M08 A3042 RMK SC5SC3 SLP305
Loading
Personal Weather Stations






























Interactive Weather Map New forecast layout! Learn more

10-Day Weather Forecast

Advertisements
Track Severe Weather on mobile